sensor_id;sensor_type;location;lat;lon;timestamp;pressure;altitude;pressure_sealevel;temperature;humidity
63493;BME280;49638;47.526;10.028;2022-07-29T00:00:05;91746.72;;;15.82;87.81
63493;BME280;49638;47.526;10.028;2022-07-29T00:03:06;91731.28;;;15.79;87.76
63493;BME280;49638;47.526;10.028;2022-07-29T00:06:06;91736.28;;;15.91;87.39
63493;BME280;49638;47.526;10.028;2022-07-29T00:09:07;91739.19;;;15.94;87.59
63493;BME280;49638;47.526;10.028;2022-07-29T00:12:07;91730.41;;;15.94;87.55
63493;BME280;49638;47.526;10.028;2022-07-29T00:15:08;91711.50;;;15.90;88.01
63493;BME280;49638;47.526;10.028;2022-07-29T00:18:08;91727.19;;;15.97;87.96
63493;BME280;49638;47.526;10.028;2022-07-29T00:21:08;91722.38;;;15.99;87.63
63493;BME280;49638;47.526;10.028;2022-07-29T00:24:09;91722.66;;;15.97;87.71
63493;BME280;49638;47.526;10.028;2022-07-29T00:27:09;91716.28;;;15.93;87.76
63493;BME280;49638;47.526;10.028;2022-07-29T00:30:09;91726.91;;;15.98;87.70
63493;BME280;49638;47.526;10.028;2022-07-29T00:33:10;91727.75;;;15.94;87.79
63493;BME280;49638;47.526;10.028;2022-07-29T00:36:10;91731.22;;;15.89;88.26
63493;BME280;49638;47.526;10.028;2022-07-29T00:39:10;91712.84;;;15.88;88.05
63493;BME280;49638;47.526;10.028;2022-07-29T00:42:10;91722.47;;;15.83;88.23
63493;BME280;49638;47.526;10.028;2022-07-29T00:45:11;91712.59;;;15.84;88.30
63493;BME280;49638;47.526;10.028;2022-07-29T00:48:12;91705.41;;;15.84;88.57
63493;BME280;49638;47.526;10.028;2022-07-29T00:51:12;91695.56;;;15.80;88.27
63493;BME280;49638;47.526;10.028;2022-07-29T00:54:14;91690.78;;;15.77;88.11
63493;BME280;49638;47.526;10.028;2022-07-29T00:57:14;91683.91;;;15.71;88.28
63493;BME280;49638;47.526;10.028;2022-07-29T01:00:19;91687.06;;;15.78;88.36
63493;BME280;49638;47.526;10.028;2022-07-29T01:03:19;91684.38;;;15.78;88.17
63493;BME280;49638;47.526;10.028;2022-07-29T01:06:20;91687.88;;;15.73;88.23
63493;BME280;49638;47.526;10.028;2022-07-29T01:09:21;91687.09;;;15.73;88.35
63493;BME280;49638;47.526;10.028;2022-07-29T01:12:24;91682.03;;;15.71;88.46
63493;BME280;49638;47.526;10.028;2022-07-29T01:15:25;91676.19;;;15.69;90.12
63493;BME280;49638;47.526;10.028;2022-07-29T01:18:32;91670.56;;;15.66;88.29
63493;BME280;49638;47.526;10.028;2022-07-29T01:22:02;91683.09;;;15.65;88.74
63493;BME280;49638;47.526;10.028;2022-07-29T01:28:45;91677.56;;;15.51;88.53
63493;BME280;49638;47.526;10.028;2022-07-29T01:32:01;91675.97;;;15.50;88.80
63493;BME280;49638;47.526;10.028;2022-07-29T01:35:05;91679.97;;;15.48;87.95
63493;BME280;49638;47.526;10.028;2022-07-29T01:38:13;91672.28;;;15.41;88.14
63493;BME280;49638;47.526;10.028;2022-07-29T01:41:19;91676.31;;;15.33;87.89
63493;BME280;49638;47.526;10.028;2022-07-29T01:44:34;91662.50;;;15.21;88.14
63493;BME280;49638;47.526;10.028;2022-07-29T01:48:05;91679.25;;;15.27;88.90
63493;BME280;49638;47.526;10.028;2022-07-29T01:51:14;91659.09;;;15.16;88.32
63493;BME280;49638;47.526;10.028;2022-07-29T01:54:45;91666.28;;;15.15;88.37
63493;BME280;49638;47.526;10.028;2022-07-29T01:57:46;91667.06;;;15.16;87.78
63493;BME280;49638;47.526;10.028;2022-07-29T02:00:48;91663.88;;;15.13;87.90
63493;BME280;49638;47.526;10.028;2022-07-29T02:03:50;91651.38;;;15.04;87.91
63493;BME280;49638;47.526;10.028;2022-07-29T02:06:52;91649.00;;;14.97;87.73
63493;BME280;49638;47.526;10.028;2022-07-29T02:09:54;91661.78;;;15.00;87.55
63493;BME280;49638;47.526;10.028;2022-07-29T02:12:57;91656.47;;;14.95;87.88
63493;BME280;49638;47.526;10.028;2022-07-29T02:15:59;91655.94;;;14.93;87.85
63493;BME280;49638;47.526;10.028;2022-07-29T02:19:01;91661.28;;;14.93;88.25
63493;BME280;49638;47.526;10.028;2022-07-29T02:22:03;91648.78;;;14.88;87.96
63493;BME280;49638;47.526;10.028;2022-07-29T02:25:07;91650.66;;;14.83;88.02
63493;BME280;49638;47.526;10.028;2022-07-29T02:28:08;91647.72;;;14.79;88.10
63493;BME280;49638;47.526;10.028;2022-07-29T02:31:09;91631.00;;;14.63;88.01
63493;BME280;49638;47.526;10.028;2022-07-29T02:34:10;91643.22;;;14.70;88.01
63493;BME280;49638;47.526;10.028;2022-07-29T02:37:12;91644.03;;;14.60;88.30
63493;BME280;49638;47.526;10.028;2022-07-29T02:40:14;91636.84;;;14.60;88.50
63493;BME280;49638;47.526;10.028;2022-07-29T02:43:16;91637.41;;;14.62;88.30
63493;BME280;49638;47.526;10.028;2022-07-29T02:46:23;91637.94;;;14.64;88.58
63493;BME280;49638;47.526;10.028;2022-07-29T02:49:42;91635.03;;;14.61;89.05
63493;BME280;49638;47.526;10.028;2022-07-29T02:52:52;91630.50;;;14.61;88.26
63493;BME280;49638;47.526;10.028;2022-07-29T02:55:59;91627.03;;;14.61;88.42
63493;BME280;49638;47.526;10.028;2022-07-29T02:59:05;91633.69;;;14.58;88.27
63493;BME280;49638;47.526;10.028;2022-07-29T03:02:06;91640.34;;;14.56;88.22
63493;BME280;49638;47.526;10.028;2022-07-29T03:05:11;91645.41;;;14.52;88.50
63493;BME280;49638;47.526;10.028;2022-07-29T03:08:14;91641.91;;;14.47;88.68
63493;BME280;49638;47.526;10.028;2022-07-29T03:11:16;91632.09;;;14.47;88.65
63493;BME280;49638;47.526;10.028;2022-07-29T03:14:18;91637.91;;;14.49;88.57
63493;BME280;49638;47.526;10.028;2022-07-29T03:17:19;91635.78;;;14.46;88.60
63493;BME280;49638;47.526;10.028;2022-07-29T03:20:20;91629.41;;;14.42;88.55
63493;BME280;49638;47.526;10.028;2022-07-29T03:23:21;91616.66;;;14.39;88.73
63493;BME280;49638;47.526;10.028;2022-07-29T03:26:22;91633.41;;;14.44;88.97
63493;BME280;49638;47.526;10.028;2022-07-29T03:29:23;91627.56;;;14.42;88.96
63493;BME280;49638;47.526;10.028;2022-07-29T03:32:24;91627.31;;;14.44;88.70
63493;BME280;49638;47.526;10.028;2022-07-29T03:35:24;91622.53;;;14.41;88.89
63493;BME280;49638;47.526;10.028;2022-07-29T03:38:28;91628.88;;;14.45;89.03
63493;BME280;49638;47.526;10.028;2022-07-29T03:41:30;91633.94;;;14.41;88.87
63493;BME280;49638;47.526;10.028;2022-07-29T03:44:32;91633.41;;;14.44;88.99
63493;BME280;49638;47.526;10.028;2022-07-29T03:47:34;91637.91;;;14.49;88.88
63493;BME280;49638;47.526;10.028;2022-07-29T03:50:36;91641.38;;;14.50;88.64
63493;BME280;49638;47.526;10.028;2022-07-29T03:53:36;91651.75;;;14.56;88.98
63493;BME280;49638;47.526;10.028;2022-07-29T03:56:40;91658.16;;;14.55;89.16
63493;BME280;49638;47.526;10.028;2022-07-29T03:59:42;91661.34;;;14.62;89.01
63493;BME280;49638;47.526;10.028;2022-07-29T04:02:44;91653.91;;;14.64;88.94
63493;BME280;49638;47.526;10.028;2022-07-29T04:06:02;91651.75;;;14.72;89.83
63493;BME280;49638;47.526;10.028;2022-07-29T04:09:03;91643.25;;;14.64;88.98
63493;BME280;49638;47.526;10.028;2022-07-29T04:12:03;91645.38;;;14.62;88.96
63493;BME280;49638;47.526;10.028;2022-07-29T04:15:04;91662.66;;;14.70;88.78
63493;BME280;49638;47.526;10.028;2022-07-29T04:18:05;91647.22;;;14.72;89.03
63493;BME280;49638;47.526;10.028;2022-07-29T04:21:05;91653.06;;;14.79;89.19
63493;BME280;49638;47.526;10.028;2022-07-29T04:24:07;91656.22;;;14.86;88.95
63493;BME280;49638;47.526;10.028;2022-07-29T04:27:07;91660.22;;;14.89;89.05
63493;BME280;49638;47.526;10.028;2022-07-29T04:30:08;91655.16;;;14.93;88.96
63493;BME280;49638;47.526;10.028;2022-07-29T04:33:08;91662.56;;;15.06;89.03
63493;BME280;49638;47.526;10.028;2022-07-29T04:36:08;91659.63;;;15.12;89.31
63493;BME280;49638;47.526;10.028;2022-07-29T04:39:10;91664.91;;;15.23;89.31
63493;BME280;49638;47.526;10.028;2022-07-29T04:42:11;91667.94;;;15.55;88.53
63493;BME280;49638;47.526;10.028;2022-07-29T04:45:11;91663.16;;;16.07;87.15
63493;BME280;49638;47.526;10.028;2022-07-29T04:48:11;91658.25;;;16.53;85.93
63493;BME280;49638;47.526;10.028;2022-07-29T04:51:12;91671.47;;;16.98;84.75
63493;BME280;49638;47.526;10.028;2022-07-29T04:54:13;91666.50;;;17.39;83.72
63493;BME280;49638;47.526;10.028;2022-07-29T04:57:13;91662.34;;;17.71;83.26
63493;BME280;49638;47.526;10.028;2022-07-29T05:00:13;91667.38;;;17.54;84.69
63493;BME280;49638;47.526;10.028;2022-07-29T05:03:14;91665.78;;;17.77;83.96
63493;BME280;49638;47.526;10.028;2022-07-29T05:06:14;91670.97;;;18.43;82.00
63493;BME280;49638;47.526;10.028;2022-07-29T05:09:14;91671.25;;;18.94;80.68
63493;BME280;49638;47.526;10.028;2022-07-29T05:12:15;91667.38;;;19.00;80.67
63493;BME280;49638;47.526;10.028;2022-07-29T05:15:15;91680.44;;;18.55;82.41
63493;BME280;49638;47.526;10.028;2022-07-29T05:18:16;91672.56;;;18.07;83.68
63493;BME280;49638;47.526;10.028;2022-07-29T05:21:16;91674.59;;;17.77;84.04
63493;BME280;49638;47.526;10.028;2022-07-29T05:24:17;91688.41;;;17.60;84.70
63493;BME280;49638;47.526;10.028;2022-07-29T05:27:17;91691.78;;;17.47;85.00
63493;BME280;49638;47.526;10.028;2022-07-29T05:30:18;91696.50;;;17.31;85.34
63493;BME280;49638;47.526;10.028;2022-07-29T05:33:18;91696.34;;;17.22;85.09
63493;BME280;49638;47.526;10.028;2022-07-29T05:36:19;91690.28;;;17.12;85.31
63493;BME280;49638;47.526;10.028;2022-07-29T05:39:19;91693.81;;;17.07;84.88
63493;BME280;49638;47.526;10.028;2022-07-29T05:42:19;91683.53;;;16.95;84.64
63493;BME280;49638;47.526;10.028;2022-07-29T05:45:19;91694.75;;;16.92;85.14
63493;BME280;49638;47.526;10.028;2022-07-29T05:48:20;91689.97;;;16.89;85.51
63493;BME280;49638;47.526;10.028;2022-07-29T05:51:20;91697.47;;;16.87;85.31
63493;BME280;49638;47.526;10.028;2022-07-29T05:54:20;91694.31;;;16.85;85.08
63493;BME280;49638;47.526;10.028;2022-07-29T05:57:22;91686.63;;;16.78;85.05
63493;BME280;49638;47.526;10.028;2022-07-29T06:00:23;91705.94;;;16.94;85.80
63493;BME280;49638;47.526;10.028;2022-07-29T06:03:23;91707.56;;;16.95;85.63
63493;BME280;49638;47.526;10.028;2022-07-29T06:06:23;91725.63;;;17.03;85.79
63493;BME280;49638;47.526;10.028;2022-07-29T06:09:23;91733.06;;;17.07;85.68
63493;BME280;49638;47.526;10.028;2022-07-29T06:12:24;91736.25;;;17.09;84.96
63493;BME280;49638;47.526;10.028;2022-07-29T06:15:24;91741.00;;;17.12;84.51
63493;BME280;49638;47.526;10.028;2022-07-29T06:18:24;91740.75;;;17.13;84.51
63493;BME280;49638;47.526;10.028;2022-07-29T06:21:25;91731.41;;;17.11;84.68
63493;BME280;49638;47.526;10.028;2022-07-29T06:24:25;91745.34;;;17.08;84.61
63493;BME280;49638;47.526;10.028;2022-07-29T06:27:25;91748.84;;;17.03;84.81
63493;BME280;49638;47.526;10.028;2022-07-29T06:30:26;91749.19;;;16.96;84.64
63493;BME280;49638;47.526;10.028;2022-07-29T06:33:26;91738.59;;;16.86;84.39
63493;BME280;49638;47.526;10.028;2022-07-29T06:36:26;91743.38;;;16.89;84.47
63493;BME280;49638;47.526;10.028;2022-07-29T06:39:27;91730.06;;;16.84;84.49
63493;BME280;49638;47.526;10.028;2022-07-29T06:42:27;91738.59;;;16.86;84.92
63493;BME280;49638;47.526;10.028;2022-07-29T06:45:28;91733.25;;;16.86;85.56
63493;BME280;49638;47.526;10.028;2022-07-29T06:48:28;91735.41;;;16.84;85.67
63493;BME280;49638;47.526;10.028;2022-07-29T06:51:29;91732.78;;;16.79;86.19
63493;BME280;49638;47.526;10.028;2022-07-29T06:54:29;91745.56;;;16.82;86.33
63493;BME280;49638;47.526;10.028;2022-07-29T06:57:30;91737.03;;;16.80;86.33
63493;BME280;49638;47.526;10.028;2022-07-29T07:00:30;91719.22;;;16.75;86.52
63493;BME280;49638;47.526;10.028;2022-07-29T07:03:30;91733.56;;;16.79;86.56
63493;BME280;49638;47.526;10.028;2022-07-29T07:06:31;91735.63;;;16.88;86.99
63493;BME280;49638;47.526;10.028;2022-07-29T07:09:32;91727.34;;;16.89;86.97
63493;BME280;49638;47.526;10.028;2022-07-29T07:12:32;91729.38;;;17.02;87.25
63493;BME280;49638;47.526;10.028;2022-07-29T07:15:33;91733.06;;;17.07;87.69
63493;BME280;49638;47.526;10.028;2022-07-29T07:18:33;91724.97;;;17.17;87.95
63493;BME280;49638;47.526;10.028;2022-07-29T07:21:33;91728.88;;;17.24;87.80
63493;BME280;49638;47.526;10.028;2022-07-29T07:24:34;91726.31;;;17.38;87.79
63493;BME280;49638;47.526;10.028;2022-07-29T07:27:34;91727.00;;;17.49;87.55
63493;BME280;49638;47.526;10.028;2022-07-29T07:30:35;91724.22;;;17.59;87.28
63493;BME280;49638;47.526;10.028;2022-07-29T07:33:35;91722.25;;;17.70;87.35
63493;BME280;49638;47.526;10.028;2022-07-29T07:36:35;91726.19;;;17.78;87.45
63493;BME280;49638;47.526;10.028;2022-07-29T07:39:36;91717.59;;;17.81;87.53
63493;BME280;49638;47.526;10.028;2022-07-29T07:42:37;91730.03;;;17.90;87.29
63493;BME280;49638;47.526;10.028;2022-07-29T07:45:38;91730.47;;;18.16;87.20
63493;BME280;49638;47.526;10.028;2022-07-29T07:48:40;91725.41;;;18.53;86.58
63493;BME280;49638;47.526;10.028;2022-07-29T07:51:40;91734.94;;;18.97;85.08
63493;BME280;49638;47.526;10.028;2022-07-29T07:54:40;91728.91;;;19.19;83.94
63493;BME280;49638;47.526;10.028;2022-07-29T07:57:41;91720.50;;;19.39;84.40
63493;BME280;49638;47.526;10.028;2022-07-29T08:00:41;91721.06;;;19.82;83.28
63493;BME280;49638;47.526;10.028;2022-07-29T08:03:41;91727.47;;;20.23;82.06
63493;BME280;49638;47.526;10.028;2022-07-29T08:06:42;91723.41;;;20.48;81.31
63493;BME280;49638;47.526;10.028;2022-07-29T08:09:42;91727.19;;;20.61;80.96
63493;BME280;49638;47.526;10.028;2022-07-29T08:12:42;91729.59;;;20.62;80.23
63493;BME280;49638;47.526;10.028;2022-07-29T08:15:42;91734.63;;;20.64;80.58
63493;BME280;49638;47.526;10.028;2022-07-29T08:18:45;91747.28;;;20.63;80.26
63493;BME280;49638;47.526;10.028;2022-07-29T08:21:46;91741.41;;;20.61;79.40
63493;BME280;49638;47.526;10.028;2022-07-29T08:24:46;91747.78;;;20.65;78.93
63493;BME280;49638;47.526;10.028;2022-07-29T08:27:52;91740.88;;;20.73;78.43
63493;BME280;49638;47.526;10.028;2022-07-29T08:30:52;91743.78;;;20.85;76.97
63493;BME280;49638;47.526;10.028;2022-07-29T08:33:53;91766.47;;;20.93;75.86
63493;BME280;49638;47.526;10.028;2022-07-29T08:36:53;91767.00;;;20.81;76.10
63493;BME280;49638;47.526;10.028;2022-07-29T08:39:53;91767.22;;;20.71;76.08
63493;BME280;49638;47.526;10.028;2022-07-29T08:42:54;91775.34;;;20.57;76.23
63493;BME280;49638;47.526;10.028;2022-07-29T08:45:54;91788.34;;;20.50;76.73
63493;BME280;49638;47.526;10.028;2022-07-29T08:48:55;91801.38;;;20.43;76.94
63493;BME280;49638;47.526;10.028;2022-07-29T08:51:56;91800.41;;;20.39;76.77
63493;BME280;49638;47.526;10.028;2022-07-29T08:54:57;91796.09;;;20.38;76.51
63493;BME280;49638;47.526;10.028;2022-07-29T08:57:58;91796.34;;;20.55;75.74
63493;BME280;49638;47.526;10.028;2022-07-29T09:01:01;91792.78;;;20.68;74.34
63493;BME280;49638;47.526;10.028;2022-07-29T09:04:03;91805.75;;;21.02;73.63
63493;BME280;49638;47.526;10.028;2022-07-29T09:07:05;91805.72;;;21.25;73.26
63493;BME280;49638;47.526;10.028;2022-07-29T09:10:06;91795.66;;;21.31;72.75
63493;BME280;49638;47.526;10.028;2022-07-29T09:13:07;91801.59;;;21.41;72.81
63493;BME280;49638;47.526;10.028;2022-07-29T09:16:07;91805.09;;;21.42;72.48
63493;BME280;49638;47.526;10.028;2022-07-29T09:19:22;91807.91;;;21.37;67.89
63493;BME280;49638;47.526;10.028;2022-07-29T09:22:29;91806.53;;;21.25;69.48
63493;BME280;49638;47.526;10.028;2022-07-29T09:25:34;91800.00;;;21.18;71.64
63493;BME280;49638;47.526;10.028;2022-07-29T09:28:41;91800.06;;;21.04;68.73
63493;BME280;49638;47.526;10.028;2022-07-29T09:31:44;91801.09;;;20.94;72.68
63493;BME280;49638;47.526;10.028;2022-07-29T09:34:45;91793.06;;;20.81;73.90
63493;BME280;49638;47.526;10.028;2022-07-29T09:37:45;91795.47;;;20.68;74.79
63493;BME280;49638;47.526;10.028;2022-07-29T09:40:56;91808.06;;;20.59;75.37
63493;BME280;49638;47.526;10.028;2022-07-29T09:43:58;91803.66;;;20.49;75.54
63493;BME280;49638;47.526;10.028;2022-07-29T09:47:03;91804.97;;;20.38;75.32
63493;BME280;49638;47.526;10.028;2022-07-29T09:50:07;91813.63;;;20.35;75.48
63493;BME280;49638;47.526;10.028;2022-07-29T09:53:08;91806.84;;;20.38;75.94
63493;BME280;49638;47.526;10.028;2022-07-29T09:56:11;91802.78;;;20.40;76.03
63493;BME280;49638;47.526;10.028;2022-07-29T09:59:11;91812.72;;;20.40;76.43
63493;BME280;49638;47.526;10.028;2022-07-29T10:02:13;91825.75;;;20.32;77.12
63493;BME280;49638;47.526;10.028;2022-07-29T10:05:24;91832.72;;;20.20;76.62
63493;BME280;49638;47.526;10.028;2022-07-29T10:08:25;91829.13;;;20.11;77.52
63493;BME280;49638;47.526;10.028;2022-07-29T10:11:26;91820.28;;;19.96;78.10
63493;BME280;49638;47.526;10.028;2022-07-29T10:14:27;91823.16;;;19.86;78.65
63493;BME280;49638;47.526;10.028;2022-07-29T10:17:28;91823.88;;;19.78;78.23
63493;BME280;49638;47.526;10.028;2022-07-29T10:20:28;91816.91;;;19.77;78.29
63493;BME280;49638;47.526;10.028;2022-07-29T10:23:29;91814.00;;;19.73;79.05
63493;BME280;49638;47.526;10.028;2022-07-29T10:26:30;91808.94;;;19.72;79.24
63493;BME280;49638;47.526;10.028;2022-07-29T10:29:30;91806.28;;;19.72;79.57
63493;BME280;49638;47.526;10.028;2022-07-29T10:35:54;91806.66;;;19.65;80.25
63493;BME280;49638;47.526;10.028;2022-07-29T10:39:35;91813.00;;;19.69;80.15
63493;BME280;49638;47.526;10.028;2022-07-29T10:42:39;91810.63;;;19.68;79.70
63493;BME280;49638;47.526;10.028;2022-07-29T10:45:41;91804.38;;;19.72;80.26
63493;BME280;49638;47.526;10.028;2022-07-29T10:52:06;91801.72;;;19.86;79.91
63493;BME280;49638;47.526;10.028;2022-07-29T10:55:07;91793.47;;;19.96;79.57
63493;BME280;49638;47.526;10.028;2022-07-29T10:58:25;91781.84;;;20.15;80.06
63493;BME280;49638;47.526;10.028;2022-07-29T11:01:29;91770.41;;;20.23;77.94
63493;BME280;49638;47.526;10.028;2022-07-29T11:20:58;91759.94;;;21.08;72.56
63493;BME280;49638;47.526;10.028;2022-07-29T11:24:13;91755.59;;;21.20;65.83
63493;BME280;49638;47.526;10.028;2022-07-29T11:27:18;91755.34;;;21.31;69.54
63493;BME280;49638;47.526;10.028;2022-07-29T11:30:49;91751.31;;;21.42;66.72
63493;BME280;49638;47.526;10.028;2022-07-29T11:33:50;91755.94;;;21.50;70.92
63493;BME280;49638;47.526;10.028;2022-07-29T11:40:11;91746.16;;;21.54;69.45
63493;BME280;49638;47.526;10.028;2022-07-29T11:43:50;91739.06;;;21.58;66.21
63493;BME280;49638;47.526;10.028;2022-07-29T11:46:51;91737.50;;;21.66;68.27
63493;BME280;49638;47.526;10.028;2022-07-29T11:49:54;91746.09;;;21.77;68.04
63493;BME280;49638;47.526;10.028;2022-07-29T11:52:54;91737.09;;;21.81;67.91
63493;BME280;49638;47.526;10.028;2022-07-29T11:55:55;91732.34;;;21.87;67.80
63493;BME280;49638;47.526;10.028;2022-07-29T11:59:03;91737.63;;;21.92;63.46
63493;BME280;49638;47.526;10.028;2022-07-29T12:02:04;91731.00;;;21.98;66.62
63493;BME280;49638;47.526;10.028;2022-07-29T12:05:05;91724.00;;;21.97;66.63
63493;BME280;49638;47.526;10.028;2022-07-29T12:08:14;91721.63;;;21.95;66.37
63493;BME280;49638;47.526;10.028;2022-07-29T12:11:16;91720.22;;;21.98;66.21
63493;BME280;49638;47.526;10.028;2022-07-29T12:20:29;91720.84;;;21.95;65.09
63493;BME280;49638;47.526;10.028;2022-07-29T12:23:30;91726.84;;;21.92;64.92
63493;BME280;49638;47.526;10.028;2022-07-29T12:26:32;91717.31;;;21.86;64.34
63493;BME280;49638;47.526;10.028;2022-07-29T12:29:32;91709.75;;;21.88;64.21
63493;BME280;49638;47.526;10.028;2022-07-29T12:32:42;91707.06;;;21.88;63.68
63493;BME280;49638;47.526;10.028;2022-07-29T12:35:45;91704.66;;;21.86;63.68
63493;BME280;49638;47.526;10.028;2022-07-29T12:38:46;91698.50;;;21.86;63.53
63493;BME280;49638;47.526;10.028;2022-07-29T12:41:46;91699.78;;;21.88;62.96
63493;BME280;49638;47.526;10.028;2022-07-29T12:44:48;91710.69;;;21.92;63.08
63493;BME280;49638;47.526;10.028;2022-07-29T12:47:52;91706.13;;;21.92;62.26
63493;BME280;49638;47.526;10.028;2022-07-29T12:50:56;91702.63;;;22.01;59.62
63493;BME280;49638;47.526;10.028;2022-07-29T12:54:09;91707.72;;;22.02;61.05
63493;BME280;49638;47.526;10.028;2022-07-29T12:57:10;91702.81;;;22.04;62.89
63493;BME280;49638;47.526;10.028;2022-07-29T13:00:11;91702.50;;;22.06;62.24
63493;BME280;49638;47.526;10.028;2022-07-29T13:03:13;91705.97;;;22.06;61.58
63493;BME280;49638;47.526;10.028;2022-07-29T13:09:43;91705.84;;;22.11;58.10
63493;BME280;49638;47.526;10.028;2022-07-29T13:16:07;91710.25;;;22.07;59.11
63493;BME280;49638;47.526;10.028;2022-07-29T13:19:10;91705.84;;;22.11;60.93
63493;BME280;49638;47.526;10.028;2022-07-29T13:22:13;91711.69;;;22.13;61.23
63493;BME280;49638;47.526;10.028;2022-07-29T13:25:13;91700.75;;;22.10;61.83
63493;BME280;49638;47.526;10.028;2022-07-29T13:28:14;91714.28;;;22.18;62.24
63493;BME280;49638;47.526;10.028;2022-07-29T13:31:14;91719.38;;;22.29;62.39
63493;BME280;49638;47.526;10.028;2022-07-29T13:34:14;91716.19;;;22.27;62.56
63493;BME280;49638;47.526;10.028;2022-07-29T13:37:15;91730.94;;;22.29;62.61
63493;BME280;49638;47.526;10.028;2022-07-29T13:40:16;91725.84;;;22.28;62.94
63493;BME280;49638;47.526;10.028;2022-07-29T13:43:17;91737.88;;;22.30;62.82
63493;BME280;49638;47.526;10.028;2022-07-29T13:46:17;91742.50;;;22.30;62.60
63493;BME280;49638;47.526;10.028;2022-07-29T13:49:17;91742.63;;;22.25;63.14
63493;BME280;49638;47.526;10.028;2022-07-29T13:52:17;91738.97;;;22.20;63.18
63493;BME280;49638;47.526;10.028;2022-07-29T13:55:18;91739.94;;;22.16;63.08
63493;BME280;49638;47.526;10.028;2022-07-29T13:58:18;91742.41;;;22.12;63.69
63493;BME280;49638;47.526;10.028;2022-07-29T14:01:18;91737.66;;;22.09;63.99
63493;BME280;49638;47.526;10.028;2022-07-29T14:04:19;91746.03;;;21.99;63.71
63493;BME280;49638;47.526;10.028;2022-07-29T14:07:19;91734.44;;;21.90;64.10
63493;BME280;49638;47.526;10.028;2022-07-29T14:10:19;91751.97;;;21.87;64.51
63493;BME280;49638;47.526;10.028;2022-07-29T14:13:20;91759.41;;;21.82;64.84
63493;BME280;49638;47.526;10.028;2022-07-29T14:16:20;91767.59;;;21.77;65.35
63493;BME280;49638;47.526;10.028;2022-07-29T14:19:21;91758.72;;;21.67;65.80
63493;BME280;49638;47.526;10.028;2022-07-29T14:22:21;91764.09;;;21.67;65.83
63493;BME280;49638;47.526;10.028;2022-07-29T14:25:23;91774.53;;;21.60;65.79
63493;BME280;49638;47.526;10.028;2022-07-29T14:28:23;91780.19;;;21.59;65.52
63493;BME280;49638;47.526;10.028;2022-07-29T14:31:23;91782.22;;;21.53;65.58
63493;BME280;49638;47.526;10.028;2022-07-29T14:34:24;91786.63;;;21.49;66.02
63493;BME280;49638;47.526;10.028;2022-07-29T14:37:24;91787.38;;;21.41;65.93
63493;BME280;49638;47.526;10.028;2022-07-29T14:40:24;91790.91;;;21.27;65.91
63493;BME280;49638;47.526;10.028;2022-07-29T14:43:25;91803.84;;;21.25;66.20
63493;BME280;49638;47.526;10.028;2022-07-29T14:46:27;91812.47;;;21.14;66.09
63493;BME280;49638;47.526;10.028;2022-07-29T14:49:27;91807.13;;;21.00;66.05
63493;BME280;49638;47.526;10.028;2022-07-29T14:52:27;91819.88;;;20.94;65.46
63493;BME280;49638;47.526;10.028;2022-07-29T14:55:28;91823.59;;;20.85;64.74
63493;BME280;49638;47.526;10.028;2022-07-29T14:58:30;91835.66;;;20.73;63.93
63493;BME280;49638;47.526;10.028;2022-07-29T15:01:31;91833.81;;;20.60;64.12
63493;BME280;49638;47.526;10.028;2022-07-29T15:04:31;91846.25;;;20.56;64.04
63493;BME280;49638;47.526;10.028;2022-07-29T15:07:31;91840.56;;;20.44;64.05
63493;BME280;49638;47.526;10.028;2022-07-29T15:10:31;91842.38;;;20.35;63.51
63493;BME280;49638;47.526;10.028;2022-07-29T15:13:33;91848.63;;;20.30;63.52
63493;BME280;49638;47.526;10.028;2022-07-29T15:16:36;91843.16;;;20.21;63.66
63493;BME280;49638;47.526;10.028;2022-07-29T15:19:36;91837.19;;;20.11;64.38
63493;BME280;49638;47.526;10.028;2022-07-29T15:22:37;91842.75;;;20.00;65.53
63493;BME280;49638;47.526;10.028;2022-07-29T15:25:38;91839.97;;;19.92;66.09
63493;BME280;49638;47.526;10.028;2022-07-29T15:28:39;91835.38;;;19.78;66.69
63493;BME280;49638;47.526;10.028;2022-07-29T15:31:40;91833.09;;;19.72;67.88
63493;BME280;49638;47.526;10.028;2022-07-29T15:34:40;91832.97;;;19.63;68.77
63493;BME280;49638;47.526;10.028;2022-07-29T15:37:40;91825.00;;;19.58;70.06
63493;BME280;49638;47.526;10.028;2022-07-29T15:40:41;91820.78;;;19.52;70.47
63493;BME280;49638;47.526;10.028;2022-07-29T15:43:43;91833.03;;;19.58;70.93
63493;BME280;49638;47.526;10.028;2022-07-29T15:46:45;91830.63;;;19.56;71.78
63493;BME280;49638;47.526;10.028;2022-07-29T15:50:05;91833.72;;;19.50;71.98
63493;BME280;49638;47.526;10.028;2022-07-29T15:53:06;91840.56;;;19.56;72.26
63493;BME280;49638;47.526;10.028;2022-07-29T15:56:06;91833.94;;;19.53;72.16
63493;BME280;49638;47.526;10.028;2022-07-29T15:59:07;91842.94;;;19.44;72.30
63493;BME280;49638;47.526;10.028;2022-07-29T16:02:07;91835.53;;;19.35;72.52
63493;BME280;49638;47.526;10.028;2022-07-29T16:05:08;91850.84;;;19.35;72.88
63493;BME280;49638;47.526;10.028;2022-07-29T16:08:08;91854.88;;;19.32;73.18
63493;BME280;49638;47.526;10.028;2022-07-29T16:11:08;91857.16;;;19.25;73.78
63493;BME280;49638;47.526;10.028;2022-07-29T16:14:09;91855.41;;;19.15;74.34
63493;BME280;49638;47.526;10.028;2022-07-29T16:17:10;91857.09;;;19.11;74.94
63493;BME280;49638;47.526;10.028;2022-07-29T16:20:11;91859.56;;;19.08;75.22
63493;BME280;49638;47.526;10.028;2022-07-29T16:23:11;91851.63;;;19.03;75.18
63493;BME280;49638;47.526;10.028;2022-07-29T16:26:11;91857.56;;;19.00;75.80
63493;BME280;49638;47.526;10.028;2022-07-29T16:29:12;91861.38;;;18.94;76.24
63493;BME280;49638;47.526;10.028;2022-07-29T16:32:12;91862.63;;;18.82;76.15
63493;BME280;49638;47.526;10.028;2022-07-29T16:35:12;91869.56;;;18.83;76.74